createdAt,value
2022-08-25T00:00:49.464Z,35.83
2022-08-25T00:01:57.417Z,29.73
2022-08-25T00:02:59.705Z,26.27
2022-08-25T00:04:04.689Z,20.00
2022-08-25T00:05:07.277Z,19.00
2022-08-25T00:06:11.360Z,21.00
2022-08-25T00:07:13.120Z,26.92
2022-08-25T00:08:20.279Z,15.68
2022-08-25T00:09:25.417Z,23.65
2022-08-25T00:10:27.446Z,23.08
2022-08-25T00:11:32.923Z,20.92
2022-08-25T00:12:35.001Z,23.48
2022-08-25T00:13:36.815Z,20.48
2022-08-25T00:14:38.561Z,17.80
2022-08-25T00:15:40.718Z,23.30
2022-08-25T00:16:43.555Z,20.50
2022-08-25T00:17:45.613Z,17.75
2022-08-25T00:18:52.095Z,19.13
2022-08-25T00:19:53.815Z,21.85
2022-08-25T00:20:55.566Z,13.98
2022-08-25T00:21:57.362Z,21.80
2022-08-25T00:22:59.249Z,20.35
2022-08-25T00:24:02.520Z,22.48
2022-08-25T00:25:04.710Z,22.23
2022-08-25T00:26:08.161Z,17.17
2022-08-25T00:27:12.387Z,26.55
2022-08-25T00:28:16.820Z,20.50
2022-08-25T00:29:19.331Z,23.02
2022-08-25T00:30:22.006Z,19.42
2022-08-25T00:31:24.364Z,16.20
2022-08-25T00:32:39.973Z,17.85
2022-08-25T00:33:42.558Z,20.25
2022-08-25T00:34:44.705Z,17.35
2022-08-25T00:35:46.482Z,22.98
2022-08-25T00:36:51.009Z,15.90
2022-08-25T00:37:52.762Z,17.67
2022-08-25T00:38:55.204Z,17.70
2022-08-25T00:39:58.735Z,18.27
2022-08-25T00:41:06.894Z,20.48
2022-08-25T00:42:11.855Z,13.05
2022-08-25T00:43:18.867Z,12.07
2022-08-25T00:44:21.010Z,12.52
2022-08-25T00:45:23.502Z,18.50
2022-08-25T00:46:29.165Z,16.45
2022-08-25T00:47:31.241Z,16.83
2022-08-25T00:48:32.963Z,19.00
2022-08-25T00:49:37.428Z,14.23
2022-08-25T00:50:39.143Z,18.52
2022-08-25T00:51:47.005Z,22.42
2022-08-25T00:52:52.495Z,19.95
2022-08-25T00:53:54.461Z,15.93
2022-08-25T00:55:07.937Z,18.05
2022-08-25T00:56:13.355Z,16.83
2022-08-25T00:57:18.599Z,14.05
2022-08-25T00:58:26.620Z,21.33
2022-08-25T00:59:29.190Z,18.27
2022-08-25T01:00:38.270Z,13.95
2022-08-25T01:01:41.180Z,13.73
2022-08-25T01:02:43.220Z,14.27
2022-08-25T01:03:44.934Z,16.85
2022-08-25T01:04:47.736Z,17.08
2022-08-25T01:05:51.894Z,10.35
2022-08-25T01:06:53.954Z,13.30
2022-08-25T01:07:58.563Z,18.75
2022-08-25T01:09:00.880Z,12.48
2022-08-25T01:10:02.799Z,12.02
2022-08-25T01:11:07.502Z,13.48
2022-08-25T01:12:09.262Z,17.98
2022-08-25T01:13:19.615Z,14.32
2022-08-25T01:14:23.248Z,15.57
2022-08-25T01:15:24.995Z,12.65
2022-08-25T01:16:27.396Z,13.77
2022-08-25T01:17:50.393Z,16.85
2022-08-25T01:18:56.605Z,13.55
2022-08-25T01:19:58.331Z,11.02
2022-08-25T01:21:00.258Z,9.93
2022-08-25T01:22:02.126Z,12.48
2022-08-25T01:23:04.373Z,11.32
2022-08-25T01:24:07.561Z,12.52
2022-08-25T01:25:39.730Z,11.70
2022-08-25T01:26:41.511Z,12.60
2022-08-25T01:27:43.290Z,12.55
2022-08-25T01:29:06.542Z,12.48
2022-08-25T01:30:09.474Z,12.93
2022-08-25T01:31:24.143Z,14.27
2022-08-25T01:32:26.700Z,13.00
2022-08-25T01:33:28.454Z,14.55
2022-08-25T01:34:32.421Z,9.30
2022-08-25T01:35:34.712Z,9.00
2022-08-25T01:36:36.728Z,10.32
2022-08-25T01:37:38.559Z,9.82
2022-08-25T01:38:40.253Z,10.43
2022-08-25T01:39:42.607Z,11.95
2022-08-25T01:40:44.717Z,10.55
2022-08-25T01:41:46.561Z,7.75
2022-08-25T01:43:01.996Z,8.23
2022-08-25T01:44:07.397Z,8.40
2022-08-25T01:45:17.674Z,4.90
2022-08-25T01:46:19.489Z,7.38
2022-08-25T01:47:21.326Z,3.58
2022-08-25T01:48:23.063Z,6.15
2022-08-25T01:49:24.832Z,9.63
2022-08-25T01:50:26.656Z,12.07
2022-08-25T01:51:33.301Z,4.72
2022-08-25T01:52:47.621Z,6.13
2022-08-25T01:53:49.813Z,5.72
2022-08-25T01:54:51.655Z,8.70
2022-08-25T01:56:02.682Z,7.57
2022-08-25T01:57:06.300Z,5.35
2022-08-25T01:58:07.991Z,9.50
2022-08-25T01:59:10.080Z,8.10
2022-08-25T02:00:14.666Z,7.88
2022-08-25T02:01:23.006Z,4.65
2022-08-25T02:02:26.022Z,4.72
2022-08-25T02:03:28.959Z,6.60
2022-08-25T02:04:32.539Z,7.82
2022-08-25T02:05:34.910Z,7.68
2022-08-25T02:06:37.575Z,8.68
2022-08-25T02:07:44.260Z,5.82
2022-08-25T02:08:46.085Z,6.03
2022-08-25T02:09:49.701Z,7.38
2022-08-25T02:10:53.156Z,12.77
2022-08-25T02:11:55.301Z,6.50
2022-08-25T02:12:57.014Z,5.65
2022-08-25T02:13:59.378Z,9.60
2022-08-25T02:15:04.220Z,11.98
2022-08-25T02:16:06.392Z,4.93
2022-08-25T02:17:08.318Z,8.82
2022-08-25T02:18:10.954Z,7.43
2022-08-25T02:19:12.709Z,5.32
2022-08-25T02:20:14.426Z,5.32
2022-08-25T02:21:16.615Z,4.95
2022-08-25T02:22:19.003Z,6.03
2022-08-25T02:23:21.385Z,9.13
2022-08-25T02:24:23.233Z,6.90
2022-08-25T02:25:25.033Z,6.90
2022-08-25T02:26:27.127Z,7.05
2022-08-25T02:27:28.959Z,5.63
2022-08-25T02:28:30.797Z,5.18
2022-08-25T02:29:32.671Z,6.57
2022-08-25T02:30:36.562Z,7.45
2022-08-25T02:31:39.323Z,11.75
2022-08-25T02:32:41.189Z,6.53
2022-08-25T02:33:43.028Z,8.27
2022-08-25T02:34:44.809Z,13.82
2022-08-25T02:35:46.643Z,9.07
2022-08-25T02:36:48.336Z,5.22
2022-08-25T02:37:53.629Z,7.53
2022-08-25T02:38:56.368Z,5.22
2022-08-25T02:39:58.146Z,8.27
2022-08-25T02:41:01.387Z,11.13
2022-08-25T02:42:03.637Z,12.75
2022-08-25T02:43:05.987Z,8.70
2022-08-25T02:44:08.920Z,6.50
2022-08-25T02:45:11.002Z,6.57
2022-08-25T02:46:13.235Z,12.95
2022-08-25T02:47:15.102Z,11.73
2022-08-25T02:48:16.826Z,9.13
2022-08-25T02:49:18.902Z,9.70
2022-08-25T02:50:20.851Z,8.20
2022-08-25T02:51:24.816Z,5.93
2022-08-25T02:52:26.529Z,8.45
2022-08-25T02:53:29.585Z,8.88
2022-08-25T02:54:31.452Z,11.68
2022-08-25T02:55:34.562Z,9.63
2022-08-25T02:56:36.789Z,15.05
2022-08-25T02:57:38.507Z,6.13
2022-08-25T02:58:41.812Z,11.07
2022-08-25T02:59:43.743Z,5.57
2022-08-25T03:00:46.780Z,9.93
2022-08-25T03:01:48.615Z,6.22
2022-08-25T03:02:50.312Z,9.90
2022-08-25T03:03:52.892Z,10.50
2022-08-25T03:04:55.277Z,8.52
2022-08-25T03:05:57.852Z,10.18
2022-08-25T03:06:59.769Z,9.88
2022-08-25T03:08:01.593Z,10.35
2022-08-25T03:09:03.741Z,15.30
2022-08-25T03:10:12.996Z,7.60
2022-08-25T03:11:14.848Z,6.57
2022-08-25T03:12:17.252Z,9.07
2022-08-25T03:13:19.062Z,12.73
2022-08-25T03:14:20.779Z,7.63
2022-08-25T03:15:22.600Z,8.20
2022-08-25T03:16:27.905Z,10.40
2022-08-25T03:17:29.889Z,10.63
2022-08-25T03:18:32.604Z,13.43
2022-08-25T03:19:35.176Z,6.28
2022-08-25T03:20:37.098Z,7.80
2022-08-25T03:21:39.158Z,9.35
2022-08-25T03:22:40.931Z,8.05
2022-08-25T03:23:43.947Z,9.82
2022-08-25T03:24:45.676Z,9.68
2022-08-25T03:26:06.638Z,12.00
2022-08-25T03:27:08.404Z,15.60
2022-08-25T03:28:10.374Z,14.23
2022-08-25T03:29:12.159Z,19.25
2022-08-25T03:30:13.865Z,8.48
2022-08-25T03:31:15.866Z,11.75
2022-08-25T03:32:18.029Z,11.30
2022-08-25T03:33:20.352Z,14.07
2022-08-25T03:34:23.056Z,6.80
2022-08-25T03:35:24.832Z,7.65
2022-08-25T03:36:27.758Z,11.02
2022-08-25T03:37:29.579Z,7.97
2022-08-25T03:38:31.372Z,10.68
2022-08-25T03:39:33.085Z,8.23
2022-08-25T03:40:35.137Z,10.93
2022-08-25T03:41:37.129Z,13.65
2022-08-25T03:42:45.177Z,7.03
2022-08-25T03:43:48.723Z,11.25
2022-08-25T03:44:50.749Z,11.18
2022-08-25T03:45:52.517Z,8.25
2022-08-25T03:46:54.536Z,12.48
2022-08-25T03:47:56.873Z,10.75
2022-08-25T03:49:01.319Z,12.73
2022-08-25T03:50:04.719Z,8.10
2022-08-25T03:51:06.614Z,7.70
2022-08-25T03:52:08.358Z,8.48
2022-08-25T03:53:12.734Z,10.52
2022-08-25T03:54:16.764Z,9.13
2022-08-25T03:55:18.524Z,11.10
2022-08-25T03:56:20.955Z,10.25
2022-08-25T03:57:23.537Z,8.45
2022-08-25T03:58:25.298Z,10.57
2022-08-25T03:59:27.405Z,10.88
2022-08-25T04:00:29.324Z,6.60
2022-08-25T04:01:31.122Z,7.38
2022-08-25T04:02:33.953Z,7.70
2022-08-25T04:03:36.272Z,10.32
2022-08-25T04:04:40.345Z,9.50
2022-08-25T04:05:43.116Z,9.10
2022-08-25T04:06:44.945Z,11.63
2022-08-25T04:07:46.657Z,8.55
2022-08-25T04:08:49.065Z,6.93
2022-08-25T04:09:50.759Z,11.27
2022-08-25T04:10:52.478Z,9.35
2022-08-25T04:11:54.408Z,10.13
2022-08-25T04:12:56.240Z,8.88
2022-08-25T04:13:59.228Z,8.10
2022-08-25T04:15:01.369Z,8.98
2022-08-25T04:16:10.171Z,12.25
2022-08-25T04:17:11.934Z,10.48
2022-08-25T04:18:13.708Z,9.38
2022-08-25T04:19:15.542Z,7.90
2022-08-25T04:20:17.493Z,10.70
2022-08-25T04:21:20.959Z,11.68
2022-08-25T04:22:22.696Z,14.07
2022-08-25T04:23:24.847Z,13.20
2022-08-25T04:24:26.572Z,6.47
2022-08-25T04:25:28.733Z,7.55
2022-08-25T04:26:34.101Z,9.27
2022-08-25T04:27:36.693Z,13.45
2022-08-25T04:28:38.542Z,12.95
2022-08-25T04:29:40.408Z,12.55
2022-08-25T04:30:43.880Z,10.77
2022-08-25T04:31:50.462Z,12.95
2022-08-25T04:32:52.250Z,10.70
2022-08-25T04:33:54.283Z,8.73
2022-08-25T04:34:56.090Z,12.52
2022-08-25T04:35:58.908Z,6.55
2022-08-25T04:37:03.135Z,8.10
2022-08-25T04:38:05.313Z,8.00
2022-08-25T04:39:07.150Z,10.05
2022-08-25T04:40:10.651Z,9.73
2022-08-25T04:41:14.746Z,10.68
2022-08-25T04:42:16.580Z,9.10
2022-08-25T04:43:18.290Z,7.68
2022-08-25T04:44:20.122Z,13.80
2022-08-25T04:45:21.887Z,9.70
2022-08-25T04:46:27.495Z,8.68
2022-08-25T04:47:29.259Z,10.50
2022-08-25T04:48:31.571Z,7.03
2022-08-25T04:49:33.321Z,9.68
2022-08-25T04:50:39.758Z,8.43
2022-08-25T04:51:42.542Z,12.48
2022-08-25T04:52:44.312Z,9.27
2022-08-25T04:53:46.430Z,13.30
2022-08-25T04:54:48.181Z,12.10
2022-08-25T04:55:49.957Z,12.48
2022-08-25T04:56:54.661Z,12.65
2022-08-25T04:58:00.598Z,10.05
2022-08-25T04:59:05.062Z,9.38
2022-08-25T05:00:07.656Z,10.60
2022-08-25T05:01:15.949Z,9.15
2022-08-25T05:02:17.882Z,9.05
2022-08-25T05:03:19.800Z,9.45
2022-08-25T05:04:28.417Z,7.38
2022-08-25T05:05:32.077Z,12.27
2022-08-25T05:06:35.911Z,12.40
2022-08-25T05:07:37.606Z,13.15
2022-08-25T05:08:40.114Z,9.40
2022-08-25T05:09:41.923Z,13.15
2022-08-25T05:10:43.978Z,14.15
2022-08-25T05:11:45.783Z,7.18
2022-08-25T05:12:48.748Z,11.57
2022-08-25T05:13:53.472Z,11.98
2022-08-25T05:14:55.588Z,13.55
2022-08-25T05:16:00.115Z,14.95
2022-08-25T05:17:02.569Z,12.10
2022-08-25T05:18:04.430Z,13.73
2022-08-25T05:19:07.557Z,15.75
2022-08-25T05:20:09.667Z,12.40
2022-08-25T05:21:15.565Z,7.78
2022-08-25T05:22:17.340Z,10.68
2022-08-25T05:23:19.318Z,12.07
2022-08-25T05:24:22.305Z,10.85
2022-08-25T05:25:24.348Z,15.82
2022-08-25T05:26:30.805Z,14.85
2022-08-25T05:27:34.448Z,8.68
2022-08-25T05:28:36.483Z,10.32
2022-08-25T05:29:38.221Z,15.43
2022-08-25T05:30:40.632Z,13.75
2022-08-25T05:31:48.262Z,16.90
2022-08-25T05:32:51.704Z,7.80
2022-08-25T05:33:53.874Z,18.42
2022-08-25T05:34:55.904Z,10.55
2022-08-25T05:35:57.882Z,15.63
2022-08-25T05:37:03.396Z,10.57
2022-08-25T05:38:05.967Z,11.00
2022-08-25T05:39:07.819Z,16.92
2022-08-25T05:40:10.449Z,13.23
2022-08-25T05:41:18.858Z,12.95
2022-08-25T05:42:20.615Z,14.57
2022-08-25T05:43:22.345Z,15.35
2022-08-25T05:44:24.072Z,13.80
2022-08-25T05:45:26.408Z,14.45
2022-08-25T05:46:28.515Z,13.63
2022-08-25T05:47:34.655Z,14.48
2022-08-25T05:48:37.811Z,11.93
2022-08-25T05:49:39.700Z,9.70
2022-08-25T05:50:41.506Z,13.10
2022-08-25T05:51:43.343Z,20.85
2022-08-25T05:52:45.392Z,17.95
2022-08-25T05:53:49.944Z,18.73
2022-08-25T05:54:51.675Z,17.20
2022-08-25T05:55:55.240Z,18.63
2022-08-25T05:56:57.033Z,17.80
2022-08-25T05:57:59.435Z,12.57
2022-08-25T05:59:02.445Z,17.70
2022-08-25T06:00:09.067Z,15.88
2022-08-25T06:01:38.185Z,17.27
2022-08-25T06:02:44.736Z,19.88
2022-08-25T06:03:47.855Z,18.58
2022-08-25T06:04:49.726Z,13.38
2022-08-25T06:05:51.427Z,15.95
2022-08-25T06:06:55.070Z,17.13
2022-08-25T06:07:57.003Z,14.43
2022-08-25T06:08:58.736Z,13.75
2022-08-25T06:10:00.637Z,28.50
2022-08-25T06:11:02.367Z,17.85
2022-08-25T06:12:04.189Z,22.02
2022-08-25T06:13:06.458Z,14.40
2022-08-25T06:14:10.402Z,12.60
2022-08-25T06:15:17.383Z,16.23
2022-08-25T06:16:19.136Z,18.38
2022-08-25T06:17:20.879Z,22.25
2022-08-25T06:18:22.594Z,16.52
2022-08-25T06:19:24.701Z,15.90
2022-08-25T06:20:29.086Z,16.13
2022-08-25T06:21:30.888Z,16.92
2022-08-25T06:22:32.826Z,14.73
2022-08-25T06:23:34.542Z,16.40
2022-08-25T06:24:38.178Z,15.93
2022-08-25T06:25:40.335Z,14.70
2022-08-25T06:26:42.084Z,17.10
2022-08-25T06:27:43.790Z,18.55
2022-08-25T06:28:46.191Z,15.63
2022-08-25T06:29:48.044Z,16.65
2022-08-25T06:30:59.312Z,18.85
2022-08-25T06:32:01.092Z,16.75
2022-08-25T06:33:02.789Z,19.77
2022-08-25T06:34:04.890Z,19.25
2022-08-25T06:35:10.176Z,16.02
2022-08-25T06:36:11.906Z,18.48
2022-08-25T06:37:13.630Z,14.32
2022-08-25T06:38:15.343Z,18.15
2022-08-25T06:39:17.306Z,23.10
2022-08-25T06:40:19.181Z,18.52
2022-08-25T06:41:21.004Z,19.85
2022-08-25T06:42:22.814Z,19.67
2022-08-25T06:43:24.783Z,18.27
2022-08-25T06:44:27.775Z,18.02
2022-08-25T06:45:29.588Z,21.48
2022-08-25T06:46:36.089Z,18.02
2022-08-25T06:47:38.632Z,17.60
2022-08-25T06:48:40.762Z,19.52
2022-08-25T06:49:43.110Z,21.88
2022-08-25T06:50:45.065Z,14.35
2022-08-25T06:51:47.093Z,17.33
2022-08-25T06:52:48.808Z,16.40
2022-08-25T06:53:51.293Z,17.30
2022-08-25T06:54:53.420Z,21.30
2022-08-25T06:56:02.248Z,18.55
2022-08-25T06:57:07.011Z,21.05
2022-08-25T06:58:11.238Z,21.40
2022-08-25T06:59:13.642Z,19.00
2022-08-25T07:00:16.540Z,17.70
2022-08-25T07:01:25.796Z,20.45
2022-08-25T07:02:27.933Z,18.05
2022-08-25T07:03:31.038Z,16.02
2022-08-25T07:04:34.696Z,20.05
2022-08-25T07:05:44.111Z,14.30
2022-08-25T07:06:46.037Z,17.63
2022-08-25T07:07:48.086Z,17.38
2022-08-25T07:08:49.976Z,22.42
2022-08-25T07:09:52.019Z,17.70
2022-08-25T07:10:53.791Z,16.95
2022-08-25T07:11:57.234Z,20.13
2022-08-25T07:12:58.926Z,17.05
2022-08-25T07:14:03.267Z,22.48
2022-08-25T07:15:21.095Z,16.98
2022-08-25T07:16:29.785Z,19.50
2022-08-25T07:17:32.908Z,24.73
2022-08-25T07:18:35.926Z,15.18
2022-08-25T07:19:37.654Z,26.77
2022-08-25T07:20:40.723Z,16.35
2022-08-25T07:21:45.900Z,20.40
2022-08-25T07:22:48.520Z,23.00
2022-08-25T07:23:50.304Z,17.67
2022-08-25T07:24:52.025Z,16.67
2022-08-25T07:25:54.767Z,19.80
2022-08-25T07:26:56.549Z,22.65
2022-08-25T07:27:59.102Z,16.30
2022-08-25T07:29:01.337Z,22.90
2022-08-25T07:30:04.792Z,12.45
2022-08-25T07:31:06.962Z,19.30
2022-08-25T07:32:11.736Z,15.60
2022-08-25T07:33:13.717Z,26.60
2022-08-25T07:34:34.782Z,16.13
2022-08-25T07:35:37.965Z,28.40
2022-08-25T07:36:39.940Z,25.20
2022-08-25T07:37:52.979Z,20.13
2022-08-25T07:38:55.460Z,24.55
2022-08-25T07:39:59.518Z,25.95
2022-08-25T07:41:03.398Z,19.70
2022-08-25T07:42:05.670Z,19.73
2022-08-25T07:43:13.719Z,20.30
2022-08-25T07:44:15.518Z,26.15
2022-08-25T07:45:20.559Z,15.48
2022-08-25T07:46:22.673Z,19.90
2022-08-25T07:47:24.540Z,19.08
2022-08-25T07:48:26.449Z,20.20
2022-08-25T07:49:36.005Z,16.77
2022-08-25T07:50:45.189Z,19.85
2022-08-25T07:52:04.086Z,17.85
2022-08-25T07:53:09.938Z,24.65
2022-08-25T07:54:12.348Z,26.38
2022-08-25T07:55:18.009Z,16.30
2022-08-25T07:56:19.925Z,23.02
2022-08-25T07:57:24.057Z,20.77
2022-08-25T07:58:25.972Z,15.32
2022-08-25T07:59:27.837Z,25.52
2022-08-25T08:00:33.424Z,22.63
2022-08-25T08:01:38.548Z,24.17
2022-08-25T08:02:43.662Z,23.42
2022-08-25T08:03:50.696Z,16.13
2022-08-25T08:04:54.389Z,26.73
2022-08-25T08:05:56.769Z,18.55
2022-08-25T08:06:58.451Z,25.88
2022-08-25T08:08:01.136Z,26.77
2022-08-25T08:09:03.207Z,23.45
2022-08-25T08:10:42.439Z,17.15
2022-08-25T08:11:34.696Z,23.75
2022-08-25T08:12:36.670Z,25.80
2022-08-25T08:13:41.428Z,20.88
2022-08-25T08:14:45.184Z,16.80
2022-08-25T08:15:48.483Z,22.55
2022-08-25T08:16:50.690Z,18.85
2022-08-25T08:17:52.491Z,26.10
2022-08-25T08:18:54.826Z,21.20
2022-08-25T08:19:57.163Z,21.48
2022-08-25T08:20:58.882Z,19.13
2022-08-25T08:22:03.633Z,21.17
2022-08-25T08:23:06.080Z,25.63
2022-08-25T08:24:24.908Z,18.25
2022-08-25T08:25:27.620Z,21.50
2022-08-25T08:26:55.463Z,30.38
2022-08-25T08:27:55.108Z,19.63
2022-08-25T08:28:57.047Z,24.05
2022-08-25T08:30:00.439Z,16.80
2022-08-25T08:31:02.768Z,27.10
2022-08-25T08:32:07.225Z,24.13
2022-08-25T08:33:11.310Z,22.92
2022-08-25T08:34:13.819Z,17.55
2022-08-25T08:35:18.996Z,23.52
2022-08-25T08:36:22.112Z,22.67
2022-08-25T08:37:28.191Z,24.63
2022-08-25T08:38:30.498Z,29.20
2022-08-25T08:39:32.770Z,25.00
2022-08-25T08:41:05.689Z,28.00
2022-08-25T08:42:38.108Z,23.77
2022-08-25T08:43:42.649Z,26.98
2022-08-25T08:44:50.516Z,22.25
2022-08-25T08:45:53.679Z,29.05
2022-08-25T08:47:11.315Z,26.15
2022-08-25T08:48:40.853Z,27.38
2022-08-25T08:49:57.547Z,21.20
2022-08-25T08:51:15.379Z,29.60
2022-08-25T08:52:21.615Z,35.13
2022-08-25T08:53:49.766Z,32.03
2022-08-25T08:55:00.790Z,25.73
2022-08-25T08:56:07.221Z,28.92
2022-08-25T08:57:18.931Z,32.63
2022-08-25T08:58:26.258Z,19.10
2022-08-25T08:59:33.878Z,32.90
2022-08-25T09:00:42.533Z,27.30
2022-08-25T09:02:00.395Z,30.25
2022-08-25T09:03:06.974Z,21.17
2022-08-25T09:04:10.535Z,17.75
2022-08-25T09:05:16.936Z,27.48
2022-08-25T09:06:42.742Z,26.00
2022-08-25T09:07:55.113Z,28.58
2022-08-25T09:09:02.272Z,21.38
2022-08-25T09:10:09.996Z,21.23
2022-08-25T09:11:30.595Z,25.33
2022-08-25T09:12:48.062Z,24.90
2022-08-25T09:14:04.551Z,39.70
2022-08-25T09:15:22.447Z,21.45
2022-08-25T09:16:55.721Z,27.30
2022-08-25T09:18:17.355Z,24.58
2022-08-25T09:19:41.928Z,23.23
2022-08-25T09:20:55.365Z,32.75
2022-08-25T09:22:01.852Z,34.45
2022-08-25T09:23:21.698Z,33.70
2022-08-25T09:24:35.507Z,25.05
2022-08-25T09:25:53.082Z,28.52
2022-08-25T09:27:14.122Z,22.23
2022-08-25T09:28:26.067Z,30.25
2022-08-25T09:29:37.525Z,35.97
2022-08-25T09:30:49.803Z,26.60
2022-08-25T09:31:51.976Z,34.85
2022-08-25T09:33:05.296Z,25.17
2022-08-25T09:34:32.652Z,28.45
2022-08-25T09:35:39.507Z,31.25
2022-08-25T09:36:41.936Z,26.60
2022-08-25T09:37:43.795Z,28.88
2022-08-25T09:38:46.246Z,23.92
2022-08-25T09:39:48.026Z,29.15
2022-08-25T09:40:54.412Z,42.63
2022-08-25T09:42:00.382Z,24.73
2022-08-25T09:43:05.776Z,24.25
2022-08-25T09:44:18.428Z,24.92
2022-08-25T09:45:39.671Z,28.35
2022-08-25T09:47:02.311Z,36.80
2022-08-25T09:48:21.841Z,26.77
2022-08-25T09:49:37.672Z,31.17
2022-08-25T09:50:43.951Z,28.50
2022-08-25T09:51:48.579Z,31.65
2022-08-25T09:52:54.525Z,31.52
2022-08-25T09:54:18.187Z,23.83
2022-08-25T09:55:34.614Z,27.50
2022-08-25T09:56:55.707Z,29.65
2022-08-25T09:57:58.527Z,18.88
2022-08-25T09:59:35.652Z,22.83
2022-08-25T10:00:38.513Z,26.92
2022-08-25T10:01:58.578Z,24.58
2022-08-25T10:03:22.681Z,28.52
2022-08-25T10:04:33.940Z,35.10
2022-08-25T10:05:57.913Z,32.13
2022-08-25T10:07:25.628Z,36.53
2022-08-25T10:08:43.211Z,33.00
2022-08-25T10:09:55.739Z,31.70
2022-08-25T10:10:59.963Z,26.58
2022-08-25T10:12:05.042Z,40.50
2022-08-25T10:13:15.346Z,30.00
2022-08-25T10:14:36.537Z,22.92
2022-08-25T10:15:39.858Z,27.45
2022-08-25T10:16:41.847Z,29.80
2022-08-25T10:17:50.285Z,33.17
2022-08-25T10:19:13.637Z,33.05
2022-08-25T10:20:25.413Z,35.35
2022-08-25T10:21:27.154Z,37.42
2022-08-25T10:22:32.645Z,30.48
2022-08-25T10:23:38.895Z,34.05
2022-08-25T10:24:43.949Z,28.25
2022-08-25T10:25:57.738Z,30.35
2022-08-25T10:27:12.948Z,31.13
2022-08-25T10:28:35.717Z,27.58
2022-08-25T10:30:08.584Z,31.80
2022-08-25T10:31:42.610Z,25.83
2022-08-25T10:32:53.578Z,29.98
2022-08-25T10:33:58.125Z,32.60
2022-08-25T10:35:14.161Z,30.38
2022-08-25T10:36:29.935Z,31.80
2022-08-25T10:37:52.221Z,33.45
2022-08-25T10:39:03.778Z,28.60
2022-08-25T10:40:21.922Z,31.98
2022-08-25T10:41:46.956Z,33.30
2022-08-25T10:42:57.236Z,21.05
2022-08-25T10:44:48.789Z,30.55
2022-08-25T10:47:14.723Z,34.75
2022-08-25T10:48:39.076Z,36.47
2022-08-25T10:49:52.173Z,21.40
2022-08-25T10:51:03.069Z,31.33
2022-08-25T10:52:19.064Z,31.63
2022-08-25T10:53:41.120Z,28.10
2022-08-25T10:55:19.089Z,32.65
2022-08-25T10:56:27.604Z,21.50
2022-08-25T10:57:36.199Z,31.67
2022-08-25T10:59:18.326Z,32.35
2022-08-25T11:00:31.806Z,37.17
2022-08-25T11:01:43.582Z,25.83
2022-08-25T11:04:26.181Z,37.70
2022-08-25T11:05:43.061Z,43.33
2022-08-25T11:07:13.979Z,27.55
2022-08-25T11:08:43.513Z,32.05
2022-08-25T11:09:49.332Z,25.92
2022-08-25T11:11:02.478Z,33.65
2022-08-25T11:12:19.354Z,32.03
2022-08-25T11:13:36.949Z,37.90
2022-08-25T11:14:56.440Z,28.67
2022-08-25T11:16:17.362Z,27.70
2022-08-25T11:17:26.297Z,31.17
2022-08-25T11:18:31.960Z,27.92
2022-08-25T11:19:38.609Z,30.02
2022-08-25T11:20:59.891Z,22.27
2022-08-25T11:22:24.727Z,24.48
2022-08-25T11:23:50.183Z,25.77
2022-08-25T11:25:12.381Z,21.58
2022-08-25T11:26:20.902Z,22.83
2022-08-25T11:27:28.886Z,28.30
2022-08-25T11:28:49.233Z,29.05
2022-08-25T11:30:02.076Z,27.20
2022-08-25T11:31:09.489Z,34.95
2022-08-25T11:32:11.523Z,34.22
2022-08-25T11:33:19.517Z,24.05
2022-08-25T11:34:22.558Z,24.15
2022-08-25T11:35:51.235Z,29.92
2022-08-25T11:36:57.773Z,25.77
2022-08-25T11:38:02.598Z,32.22
2022-08-25T11:39:23.149Z,28.33
2022-08-25T11:40:50.218Z,26.55
2022-08-25T11:42:12.622Z,25.70
2022-08-25T11:43:26.226Z,28.50
2022-08-25T11:44:53.574Z,25.40
2022-08-25T11:46:22.409Z,25.98
2022-08-25T11:47:40.093Z,23.95
2022-08-25T11:49:23.095Z,29.13
2022-08-25T11:50:31.426Z,28.60
2022-08-25T11:51:43.970Z,30.23
2022-08-25T11:52:51.575Z,23.35
2022-08-25T11:54:21.515Z,34.20
2022-08-25T11:55:30.040Z,29.35
2022-08-25T11:56:40.225Z,35.47
2022-08-25T11:57:43.998Z,38.72
2022-08-25T11:58:51.923Z,32.20
2022-08-25T11:59:54.328Z,32.47
2022-08-25T12:00:58.949Z,26.45
2022-08-25T12:02:01.710Z,35.92
2022-08-25T12:03:32.541Z,26.60
2022-08-25T12:04:44.228Z,30.60
2022-08-25T12:05:47.021Z,18.58
2022-08-25T12:07:07.320Z,32.10
2022-08-25T12:08:27.611Z,26.33
2022-08-25T12:09:29.439Z,32.60
2022-08-25T12:10:51.929Z,36.42
2022-08-25T12:11:58.196Z,28.83
2022-08-25T12:13:10.322Z,29.13
2022-08-25T12:14:17.635Z,33.75
2022-08-25T12:15:42.412Z,27.05
2022-08-25T12:17:00.532Z,54.70
2022-08-25T12:18:15.180Z,21.38
2022-08-25T12:19:29.059Z,32.05
2022-08-25T12:20:53.842Z,25.65
2022-08-25T12:22:22.269Z,32.90
2022-08-25T12:23:44.615Z,32.28
2022-08-25T12:25:03.769Z,24.33
2022-08-25T12:26:15.445Z,36.33
2022-08-25T12:27:33.823Z,22.27
2022-08-25T12:29:01.871Z,28.10
2022-08-25T12:30:40.140Z,26.95
2022-08-25T12:32:09.270Z,23.88
2022-08-25T12:33:11.119Z,21.60
2022-08-25T12:34:16.344Z,25.35
2022-08-25T12:36:01.135Z,24.15
2022-08-25T12:37:13.274Z,20.95
2022-08-25T12:38:19.478Z,24.58
2022-08-25T12:39:28.662Z,38.83
2022-08-25T12:40:42.783Z,23.42
2022-08-25T12:41:55.180Z,29.90
2022-08-25T12:43:26.676Z,29.85
2022-08-25T12:44:41.613Z,29.25
2022-08-25T12:45:49.922Z,27.63
2022-08-25T12:47:12.572Z,28.27
2022-08-25T12:48:26.406Z,23.35
2022-08-25T12:49:34.576Z,28.08
2022-08-25T12:50:39.429Z,19.75
2022-08-25T12:51:48.528Z,22.33
2022-08-25T12:52:52.795Z,33.05
2022-08-25T12:54:22.867Z,22.73
2022-08-25T12:55:26.607Z,32.17
2022-08-25T12:56:35.167Z,27.40
2022-08-25T12:57:58.006Z,24.17
2022-08-25T12:59:02.818Z,28.65
2022-08-25T13:00:18.322Z,24.88
2022-08-25T13:01:54.610Z,34.08
2022-08-25T13:03:20.243Z,23.25
2022-08-25T13:04:27.851Z,29.23
2022-08-25T13:05:45.392Z,21.83
2022-08-25T13:07:03.000Z,22.95
2022-08-25T13:08:15.309Z,23.42
2022-08-25T13:09:41.732Z,25.83
2022-08-25T13:11:21.798Z,20.70
2022-08-25T13:12:46.808Z,25.33
2022-08-25T13:14:26.748Z,36.20
2022-08-25T13:15:47.045Z,35.60
2022-08-25T13:16:59.123Z,32.80
2022-08-25T13:18:25.014Z,32.13
2022-08-25T13:19:29.098Z,32.85
2022-08-25T13:20:37.272Z,26.70
2022-08-25T13:21:42.322Z,26.75
2022-08-25T13:22:47.892Z,27.33
2022-08-25T13:24:04.636Z,21.70
2022-08-25T13:25:07.518Z,25.48
2022-08-25T13:26:22.271Z,36.85
2022-08-25T13:27:28.581Z,21.25
2022-08-25T13:28:34.826Z,27.95
2022-08-25T13:29:51.233Z,29.88
2022-08-25T13:31:00.335Z,26.13
2022-08-25T13:32:09.217Z,29.55
2022-08-25T13:33:20.741Z,26.13
2022-08-25T13:34:34.432Z,27.15
2022-08-25T13:35:37.193Z,35.58
2022-08-25T13:37:06.462Z,27.77
2022-08-25T13:38:13.873Z,20.15
2022-08-25T13:39:45.184Z,32.35
2022-08-25T13:40:44.231Z,30.85
2022-08-25T13:41:49.101Z,31.88
2022-08-25T13:43:02.662Z,19.00
2022-08-25T13:44:04.720Z,25.02
2022-08-25T13:45:08.149Z,26.55
2022-08-25T13:46:10.790Z,27.15
2022-08-25T13:47:31.589Z,25.42
2022-08-25T13:48:40.132Z,25.92
2022-08-25T13:49:51.436Z,29.83
2022-08-25T13:51:16.601Z,30.38
2022-08-25T13:52:29.136Z,26.52
2022-08-25T13:53:31.728Z,29.30
2022-08-25T13:54:46.916Z,20.02
2022-08-25T13:55:54.579Z,19.92
2022-08-25T13:57:18.541Z,22.30
2022-08-25T13:58:44.799Z,18.50
2022-08-25T13:59:51.466Z,19.25
2022-08-25T14:01:23.871Z,21.42
2022-08-25T14:02:51.016Z,24.10
2022-08-25T14:03:56.467Z,16.00
2022-08-25T14:05:03.271Z,21.15
2022-08-25T14:06:10.090Z,16.92
2022-08-25T14:07:21.099Z,25.15
2022-08-25T14:08:35.610Z,18.52
2022-08-25T14:10:02.174Z,13.23
2022-08-25T14:11:14.749Z,15.50
2022-08-25T14:12:47.982Z,16.13
2022-08-25T14:14:01.400Z,18.23
2022-08-25T14:15:18.635Z,19.05
2022-08-25T14:16:25.498Z,18.70
2022-08-25T14:17:39.810Z,17.90
2022-08-25T14:18:58.636Z,21.35
2022-08-25T14:20:01.633Z,15.52
2022-08-25T14:21:11.009Z,18.35
2022-08-25T14:22:14.821Z,15.63
2022-08-25T14:23:22.649Z,13.80
2022-08-25T14:24:24.694Z,15.70
2022-08-25T14:25:28.810Z,16.40
2022-08-25T14:26:32.389Z,17.33
2022-08-25T14:27:38.954Z,19.38
2022-08-25T14:28:53.195Z,20.73
2022-08-25T14:29:54.913Z,22.33
2022-08-25T14:31:02.342Z,19.92
2022-08-25T14:32:07.151Z,15.18
2022-08-25T14:33:12.672Z,12.65
2022-08-25T14:34:19.178Z,14.57
2022-08-25T14:35:21.942Z,23.63
2022-08-25T14:36:24.919Z,13.90
2022-08-25T14:37:26.744Z,24.23
2022-08-25T14:38:29.054Z,14.73
2022-08-25T14:39:30.987Z,21.63